sensor_id;sensor_type;location;lat;lon;timestamp;temperature;humidity
56322;DHT22;42227;6.376;-10.782;2023-02-20T00:00:07;27.40;99.90
56322;DHT22;42227;6.376;-10.782;2023-02-20T00:02:35;27.40;99.90
56322;DHT22;42227;6.376;-10.782;2023-02-20T00:05:07;27.40;99.90
56322;DHT22;42227;6.376;-10.782;2023-02-20T00:07:40;27.30;99.90
56322;DHT22;42227;6.376;-10.782;2023-02-20T00:10:18;27.40;99.90
56322;DHT22;42227;6.376;-10.782;2023-02-20T00:13:39;27.30;99.90
56322;DHT22;42227;6.376;-10.782;2023-02-20T00:16:12;27.40;99.90
56322;DHT22;42227;6.376;-10.782;2023-02-20T00:18:44;27.30;99.90
56322;DHT22;42227;6.376;-10.782;2023-02-20T00:21:13;27.40;99.90
56322;DHT22;42227;6.376;-10.782;2023-02-20T00:23:41;27.30;99.90
56322;DHT22;42227;6.376;-10.782;2023-02-20T00:26:11;27.30;99.90
56322;DHT22;42227;6.376;-10.782;2023-02-20T00:28:42;27.30;99.90
56322;DHT22;42227;6.376;-10.782;2023-02-20T00:31:14;27.30;99.90
56322;DHT22;42227;6.376;-10.782;2023-02-20T00:33:43;27.30;99.90
56322;DHT22;42227;6.376;-10.782;2023-02-20T00:36:19;27.30;99.90
56322;DHT22;42227;6.376;-10.782;2023-02-20T00:38:47;27.30;99.90
56322;DHT22;42227;6.376;-10.782;2023-02-20T00:41:18;27.30;99.90
56322;DHT22;42227;6.376;-10.782;2023-02-20T00:43:52;27.30;99.90
56322;DHT22;42227;6.376;-10.782;2023-02-20T00:46:26;27.30;99.90
56322;DHT22;42227;6.376;-10.782;2023-02-20T00:49:02;27.30;99.90
56322;DHT22;42227;6.376;-10.782;2023-02-20T00:51:47;27.30;99.90
56322;DHT22;42227;6.376;-10.782;2023-02-20T00:54:16;27.30;99.90
56322;DHT22;42227;6.376;-10.782;2023-02-20T00:56:44;27.30;99.90
56322;DHT22;42227;6.376;-10.782;2023-02-20T00:59:13;27.20;99.90
56322;DHT22;42227;6.376;-10.782;2023-02-20T01:01:41;27.20;99.90
56322;DHT22;42227;6.376;-10.782;2023-02-20T01:04:10;27.20;99.90
56322;DHT22;42227;6.376;-10.782;2023-02-20T01:06:41;27.20;99.90
56322;DHT22;42227;6.376;-10.782;2023-02-20T01:09:14;27.10;99.90
56322;DHT22;42227;6.376;-10.782;2023-02-20T01:11:45;27.10;99.90
56322;DHT22;42227;6.376;-10.782;2023-02-20T01:14:14;27.10;99.90
56322;DHT22;42227;6.376;-10.782;2023-02-20T01:16:47;27.10;99.90
56322;DHT22;42227;6.376;-10.782;2023-02-20T01:19:17;27.10;99.90
56322;DHT22;42227;6.376;-10.782;2023-02-20T01:21:45;27.10;99.90
56322;DHT22;42227;6.376;-10.782;2023-02-20T01:24:15;27.10;99.90
56322;DHT22;42227;6.376;-10.782;2023-02-20T01:26:52;27.10;99.90
56322;DHT22;42227;6.376;-10.782;2023-02-20T01:29:21;27.10;99.90
56322;DHT22;42227;6.376;-10.782;2023-02-20T01:31:58;27.10;99.90
56322;DHT22;42227;6.376;-10.782;2023-02-20T01:34:27;27.10;99.90
56322;DHT22;42227;6.376;-10.782;2023-02-20T01:36:55;27.10;99.90
56322;DHT22;42227;6.376;-10.782;2023-02-20T01:39:30;27.20;99.90
56322;DHT22;42227;6.376;-10.782;2023-02-20T01:42:01;27.10;99.90
56322;DHT22;42227;6.376;-10.782;2023-02-20T01:44:36;27.10;99.90
56322;DHT22;42227;6.376;-10.782;2023-02-20T01:47:09;27.10;99.90
56322;DHT22;42227;6.376;-10.782;2023-02-20T01:49:49;27.10;99.90
56322;DHT22;42227;6.376;-10.782;2023-02-20T01:52:23;27.10;99.90
56322;DHT22;42227;6.376;-10.782;2023-02-20T01:57:34;27.00;99.90
56322;DHT22;42227;6.376;-10.782;2023-02-20T02:00:15;27.00;99.90
56322;DHT22;42227;6.376;-10.782;2023-02-20T02:02:55;27.00;99.90
56322;DHT22;42227;6.376;-10.782;2023-02-20T02:05:33;26.80;99.90
56322;DHT22;42227;6.376;-10.782;2023-02-20T02:08:03;26.80;99.90
56322;DHT22;42227;6.376;-10.782;2023-02-20T02:10:52;26.80;99.90
56322;DHT22;42227;6.376;-10.782;2023-02-20T02:13:24;26.90;99.90
56322;DHT22;42227;6.376;-10.782;2023-02-20T02:37:17;26.60;99.90
56322;DHT22;42227;6.376;-10.782;2023-02-20T02:43:05;26.70;99.90
56322;DHT22;42227;6.376;-10.782;2023-02-20T02:51:36;26.50;99.90
56322;DHT22;42227;6.376;-10.782;2023-02-20T02:54:16;26.50;99.90
56322;DHT22;42227;6.376;-10.782;2023-02-20T02:56:46;26.40;99.90
56322;DHT22;42227;6.376;-10.782;2023-02-20T02:59:45;26.40;99.90
56322;DHT22;42227;6.376;-10.782;2023-02-20T03:02:29;26.40;99.90
56322;DHT22;42227;6.376;-10.782;2023-02-20T03:05:02;26.40;99.90
56322;DHT22;42227;6.376;-10.782;2023-02-20T03:07:35;26.40;99.90
56322;DHT22;42227;6.376;-10.782;2023-02-20T03:10:28;26.40;99.90
56322;DHT22;42227;6.376;-10.782;2023-02-20T03:13:03;26.30;99.90
56322;DHT22;42227;6.376;-10.782;2023-02-20T03:15:37;26.30;99.90
56322;DHT22;42227;6.376;-10.782;2023-02-20T03:20:55;26.30;99.90
56322;DHT22;42227;6.376;-10.782;2023-02-20T03:23:30;26.30;99.90
56322;DHT22;42227;6.376;-10.782;2023-02-20T03:26:10;26.30;99.90
56322;DHT22;42227;6.376;-10.782;2023-02-20T03:28:55;26.20;99.90
56322;DHT22;42227;6.376;-10.782;2023-02-20T03:31:45;26.20;99.90
56322;DHT22;42227;6.376;-10.782;2023-02-20T03:34:19;26.10;99.90
56322;DHT22;42227;6.376;-10.782;2023-02-20T03:39:48;26.10;99.90
56322;DHT22;42227;6.376;-10.782;2023-02-20T03:42:23;26.10;99.90
56322;DHT22;42227;6.376;-10.782;2023-02-20T03:45:00;26.10;99.90
56322;DHT22;42227;6.376;-10.782;2023-02-20T03:47:32;26.10;99.90
56322;DHT22;42227;6.376;-10.782;2023-02-20T03:50:04;26.00;99.90
56322;DHT22;42227;6.376;-10.782;2023-02-20T03:52:35;26.10;99.90
56322;DHT22;42227;6.376;-10.782;2023-02-20T03:55:04;26.00;99.90
56322;DHT22;42227;6.376;-10.782;2023-02-20T03:57:37;25.90;99.90
56322;DHT22;42227;6.376;-10.782;2023-02-20T04:00:16;25.90;99.90
56322;DHT22;42227;6.376;-10.782;2023-02-20T04:02:53;25.90;99.90
56322;DHT22;42227;6.376;-10.782;2023-02-20T04:05:43;25.90;99.90
56322;DHT22;42227;6.376;-10.782;2023-02-20T04:11:03;25.90;99.90
56322;DHT22;42227;6.376;-10.782;2023-02-20T04:13:34;25.90;99.90
56322;DHT22;42227;6.376;-10.782;2023-02-20T04:16:08;25.90;99.90
56322;DHT22;42227;6.376;-10.782;2023-02-20T04:18:38;25.90;99.90
56322;DHT22;42227;6.376;-10.782;2023-02-20T04:21:18;25.90;99.90
56322;DHT22;42227;6.376;-10.782;2023-02-20T04:23:51;25.80;99.90
56322;DHT22;42227;6.376;-10.782;2023-02-20T04:26:24;25.80;99.90
56322;DHT22;42227;6.376;-10.782;2023-02-20T04:28:56;25.80;99.90
56322;DHT22;42227;6.376;-10.782;2023-02-20T04:31:25;25.80;99.90
56322;DHT22;42227;6.376;-10.782;2023-02-20T04:33:54;25.80;99.90
56322;DHT22;42227;6.376;-10.782;2023-02-20T04:36:24;25.80;99.90
56322;DHT22;42227;6.376;-10.782;2023-02-20T04:38:55;25.70;99.90
56322;DHT22;42227;6.376;-10.782;2023-02-20T04:41:28;25.80;99.90
56322;DHT22;42227;6.376;-10.782;2023-02-20T04:43:56;25.70;99.90
56322;DHT22;42227;6.376;-10.782;2023-02-20T04:46:25;25.60;99.90
56322;DHT22;42227;6.376;-10.782;2023-02-20T04:48:53;25.70;99.90
56322;DHT22;42227;6.376;-10.782;2023-02-20T04:51:21;25.70;99.90
56322;DHT22;42227;6.376;-10.782;2023-02-20T04:53:49;25.60;99.90
56322;DHT22;42227;6.376;-10.782;2023-02-20T04:56:18;25.60;99.90
56322;DHT22;42227;6.376;-10.782;2023-02-20T04:58:49;25.60;99.90
56322;DHT22;42227;6.376;-10.782;2023-02-20T05:01:20;25.60;99.90
56322;DHT22;42227;6.376;-10.782;2023-02-20T05:03:48;25.60;99.90
56322;DHT22;42227;6.376;-10.782;2023-02-20T05:06:16;25.70;99.90
56322;DHT22;42227;6.376;-10.782;2023-02-20T05:08:44;25.70;99.90
56322;DHT22;42227;6.376;-10.782;2023-02-20T05:11:33;25.70;99.90
56322;DHT22;42227;6.376;-10.782;2023-02-20T05:14:04;25.70;99.90
56322;DHT22;42227;6.376;-10.782;2023-02-20T05:16:32;25.60;99.90
56322;DHT22;42227;6.376;-10.782;2023-02-20T05:19:02;25.60;99.90
56322;DHT22;42227;6.376;-10.782;2023-02-20T05:21:33;25.60;99.90
56322;DHT22;42227;6.376;-10.782;2023-02-20T05:24:05;25.60;99.90
56322;DHT22;42227;6.376;-10.782;2023-02-20T05:26:36;25.50;99.90
56322;DHT22;42227;6.376;-10.782;2023-02-20T05:29:05;25.50;99.90
56322;DHT22;42227;6.376;-10.782;2023-02-20T05:31:33;25.40;99.90
56322;DHT22;42227;6.376;-10.782;2023-02-20T05:34:02;25.50;99.90
56322;DHT22;42227;6.376;-10.782;2023-02-20T05:36:31;25.50;99.90
56322;DHT22;42227;6.376;-10.782;2023-02-20T05:38:59;25.50;99.90
56322;DHT22;42227;6.376;-10.782;2023-02-20T05:41:30;25.50;99.90
56322;DHT22;42227;6.376;-10.782;2023-02-20T05:43:59;25.50;99.90
56322;DHT22;42227;6.376;-10.782;2023-02-20T05:46:27;25.50;99.90
56322;DHT22;42227;6.376;-10.782;2023-02-20T05:48:55;25.40;99.90
56322;DHT22;42227;6.376;-10.782;2023-02-20T05:51:26;25.30;99.90
56322;DHT22;42227;6.376;-10.782;2023-02-20T05:53:55;25.40;99.90
56322;DHT22;42227;6.376;-10.782;2023-02-20T05:56:27;25.40;99.90
56322;DHT22;42227;6.376;-10.782;2023-02-20T05:59:35;25.40;99.90
56322;DHT22;42227;6.376;-10.782;2023-02-20T06:02:08;25.40;99.90
56322;DHT22;42227;6.376;-10.782;2023-02-20T06:04:37;25.40;99.90
56322;DHT22;42227;6.376;-10.782;2023-02-20T06:07:07;25.30;99.90
56322;DHT22;42227;6.376;-10.782;2023-02-20T06:09:36;25.30;99.90
56322;DHT22;42227;6.376;-10.782;2023-02-20T06:12:04;25.30;99.90
56322;DHT22;42227;6.376;-10.782;2023-02-20T06:14:32;25.30;99.90
56322;DHT22;42227;6.376;-10.782;2023-02-20T06:17:01;25.30;99.90
56322;DHT22;42227;6.376;-10.782;2023-02-20T06:19:29;25.30;99.90
56322;DHT22;42227;6.376;-10.782;2023-02-20T06:21:57;25.30;99.90
56322;DHT22;42227;6.376;-10.782;2023-02-20T06:24:26;25.30;99.90
56322;DHT22;42227;6.376;-10.782;2023-02-20T06:26:54;25.30;99.90
56322;DHT22;42227;6.376;-10.782;2023-02-20T06:29:23;25.30;99.90
56322;DHT22;42227;6.376;-10.782;2023-02-20T06:31:51;25.20;99.90
56322;DHT22;42227;6.376;-10.782;2023-02-20T06:34:22;25.30;99.90
56322;DHT22;42227;6.376;-10.782;2023-02-20T06:36:51;25.40;99.90
56322;DHT22;42227;6.376;-10.782;2023-02-20T06:39:39;25.40;99.90
56322;DHT22;42227;6.376;-10.782;2023-02-20T06:42:26;25.30;99.90
56322;DHT22;42227;6.376;-10.782;2023-02-20T06:44:57;25.30;99.90
56322;DHT22;42227;6.376;-10.782;2023-02-20T06:47:25;25.30;99.90
56322;DHT22;42227;6.376;-10.782;2023-02-20T06:49:58;25.30;99.90
56322;DHT22;42227;6.376;-10.782;2023-02-20T06:52:27;25.30;99.90
56322;DHT22;42227;6.376;-10.782;2023-02-20T06:54:58;25.30;99.90
56322;DHT22;42227;6.376;-10.782;2023-02-20T06:57:31;25.20;99.90
56322;DHT22;42227;6.376;-10.782;2023-02-20T06:59:59;25.20;99.90
56322;DHT22;42227;6.376;-10.782;2023-02-20T07:02:28;25.20;99.90
56322;DHT22;42227;6.376;-10.782;2023-02-20T07:04:56;25.30;99.90
56322;DHT22;42227;6.376;-10.782;2023-02-20T07:07:30;25.30;99.90
56322;DHT22;42227;6.376;-10.782;2023-02-20T07:09:58;25.20;99.90
56322;DHT22;42227;6.376;-10.782;2023-02-20T07:12:31;25.20;99.90
56322;DHT22;42227;6.376;-10.782;2023-02-20T07:15:06;25.20;99.90
56322;DHT22;42227;6.376;-10.782;2023-02-20T07:17:34;25.30;99.90
56322;DHT22;42227;6.376;-10.782;2023-02-20T07:20:04;25.30;99.90
56322;DHT22;42227;6.376;-10.782;2023-02-20T07:22:32;25.30;99.90
56322;DHT22;42227;6.376;-10.782;2023-02-20T07:25:01;25.30;99.90
56322;DHT22;42227;6.376;-10.782;2023-02-20T07:27:29;25.40;99.90
56322;DHT22;42227;6.376;-10.782;2023-02-20T07:29:57;25.40;99.90
56322;DHT22;42227;6.376;-10.782;2023-02-20T07:32:26;25.50;99.90
56322;DHT22;42227;6.376;-10.782;2023-02-20T07:34:54;25.50;99.90
56322;DHT22;42227;6.376;-10.782;2023-02-20T07:37:38;25.60;99.90
56322;DHT22;42227;6.376;-10.782;2023-02-20T07:40:07;25.70;99.90
56322;DHT22;42227;6.376;-10.782;2023-02-20T07:42:35;25.80;99.90
56322;DHT22;42227;6.376;-10.782;2023-02-20T07:45:13;25.90;99.90
56322;DHT22;42227;6.376;-10.782;2023-02-20T07:47:44;26.00;99.90
56322;DHT22;42227;6.376;-10.782;2023-02-20T07:50:36;26.10;99.90
56322;DHT22;42227;6.376;-10.782;2023-02-20T07:53:04;26.30;99.90
56322;DHT22;42227;6.376;-10.782;2023-02-20T07:55:32;26.50;99.90
56322;DHT22;42227;6.376;-10.782;2023-02-20T07:58:00;26.50;99.90
56322;DHT22;42227;6.376;-10.782;2023-02-20T08:00:29;26.70;99.90
56322;DHT22;42227;6.376;-10.782;2023-02-20T08:02:57;27.00;99.90
56322;DHT22;42227;6.376;-10.782;2023-02-20T08:05:27;27.30;99.90
56322;DHT22;42227;6.376;-10.782;2023-02-20T08:08:03;27.50;99.90
56322;DHT22;42227;6.376;-10.782;2023-02-20T08:10:32;27.50;99.90
56322;DHT22;42227;6.376;-10.782;2023-02-20T08:13:00;27.70;99.90
56322;DHT22;42227;6.376;-10.782;2023-02-20T08:15:29;27.70;99.90
56322;DHT22;42227;6.376;-10.782;2023-02-20T08:17:57;28.10;99.90
56322;DHT22;42227;6.376;-10.782;2023-02-20T08:20:26;28.20;99.90
56322;DHT22;42227;6.376;-10.782;2023-02-20T08:22:54;28.40;99.90
56322;DHT22;42227;6.376;-10.782;2023-02-20T08:25:22;28.80;99.90
56322;DHT22;42227;6.376;-10.782;2023-02-20T08:27:51;29.20;99.90
56322;DHT22;42227;6.376;-10.782;2023-02-20T08:30:25;29.20;99.90
56322;DHT22;42227;6.376;-10.782;2023-02-20T08:32:54;29.70;99.90
56322;DHT22;42227;6.376;-10.782;2023-02-20T08:35:23;29.80;99.90
56322;DHT22;42227;6.376;-10.782;2023-02-20T08:37:51;30.10;99.90
56322;DHT22;42227;6.376;-10.782;2023-02-20T08:40:20;30.40;99.90
56322;DHT22;42227;6.376;-10.782;2023-02-20T08:42:51;30.70;99.90
56322;DHT22;42227;6.376;-10.782;2023-02-20T08:45:20;31.00;99.90
56322;DHT22;42227;6.376;-10.782;2023-02-20T08:47:49;31.10;99.90
56322;DHT22;42227;6.376;-10.782;2023-02-20T08:50:18;31.30;99.90
56322;DHT22;42227;6.376;-10.782;2023-02-20T08:52:46;31.40;99.90
56322;DHT22;42227;6.376;-10.782;2023-02-20T08:55:15;31.70;99.90
56322;DHT22;42227;6.376;-10.782;2023-02-20T08:57:43;31.90;99.90
56322;DHT22;42227;6.376;-10.782;2023-02-20T09:00:15;32.20;99.90
56322;DHT22;42227;6.376;-10.782;2023-02-20T09:02:42;32.30;99.90
56322;DHT22;42227;6.376;-10.782;2023-02-20T09:05:11;32.20;99.90
56322;DHT22;42227;6.376;-10.782;2023-02-20T09:07:40;32.40;99.90
56322;DHT22;42227;6.376;-10.782;2023-02-20T09:10:09;32.70;99.90
56322;DHT22;42227;6.376;-10.782;2023-02-20T09:12:37;33.10;99.90
56322;DHT22;42227;6.376;-10.782;2023-02-20T09:15:06;33.40;99.90
56322;DHT22;42227;6.376;-10.782;2023-02-20T09:17:35;33.60;99.90
56322;DHT22;42227;6.376;-10.782;2023-02-20T09:20:04;33.70;99.90
56322;DHT22;42227;6.376;-10.782;2023-02-20T09:22:32;33.80;99.90
56322;DHT22;42227;6.376;-10.782;2023-02-20T09:25:00;33.90;99.90
56322;DHT22;42227;6.376;-10.782;2023-02-20T09:27:29;33.90;99.90
56322;DHT22;42227;6.376;-10.782;2023-02-20T09:29:57;33.90;99.90
56322;DHT22;42227;6.376;-10.782;2023-02-20T09:32:25;33.60;99.90
56322;DHT22;42227;6.376;-10.782;2023-02-20T09:34:54;32.80;99.90
56322;DHT22;42227;6.376;-10.782;2023-02-20T09:37:22;32.80;99.90
56322;DHT22;42227;6.376;-10.782;2023-02-20T09:39:51;32.90;99.90
56322;DHT22;42227;6.376;-10.782;2023-02-20T09:45:21;32.90;99.90
56322;DHT22;42227;6.376;-10.782;2023-02-20T09:50:53;33.10;99.90
56322;DHT22;42227;6.376;-10.782;2023-02-20T09:53:34;33.10;99.90
56322;DHT22;42227;6.376;-10.782;2023-02-20T09:56:07;33.00;99.90
56322;DHT22;42227;6.376;-10.782;2023-02-20T09:58:46;33.00;99.90
56322;DHT22;42227;6.376;-10.782;2023-02-20T10:01:19;32.90;99.90
56322;DHT22;42227;6.376;-10.782;2023-02-20T10:04:29;32.90;99.90
56322;DHT22;42227;6.376;-10.782;2023-02-20T10:07:08;32.70;99.90
56322;DHT22;42227;6.376;-10.782;2023-02-20T10:09:40;32.90;99.90
56322;DHT22;42227;6.376;-10.782;2023-02-20T10:25:55;33.00;99.90
56322;DHT22;42227;6.376;-10.782;2023-02-20T10:28:26;33.10;99.90
56322;DHT22;42227;6.376;-10.782;2023-02-20T10:31:03;33.10;99.90
56322;DHT22;42227;6.376;-10.782;2023-02-20T10:34:00;33.20;99.90
56322;DHT22;42227;6.376;-10.782;2023-02-20T10:36:42;33.00;99.90
56322;DHT22;42227;6.376;-10.782;2023-02-20T10:39:15;33.10;99.90
56322;DHT22;42227;6.376;-10.782;2023-02-20T10:41:52;33.10;99.90
56322;DHT22;42227;6.376;-10.782;2023-02-20T10:47:44;32.80;99.90
56322;DHT22;42227;6.376;-10.782;2023-02-20T10:50:26;33.20;99.90
56322;DHT22;42227;6.376;-10.782;2023-02-20T10:53:27;33.30;99.90
56322;DHT22;42227;6.376;-10.782;2023-02-20T10:56:28;33.00;99.90
56322;DHT22;42227;6.376;-10.782;2023-02-20T11:01:38;33.20;99.90
56322;DHT22;42227;6.376;-10.782;2023-02-20T11:04:14;33.40;99.90
56322;DHT22;42227;6.376;-10.782;2023-02-20T11:06:52;33.20;99.90
56322;DHT22;42227;6.376;-10.782;2023-02-20T11:09:21;32.60;99.90
56322;DHT22;42227;6.376;-10.782;2023-02-20T11:11:52;32.60;99.90
56322;DHT22;42227;6.376;-10.782;2023-02-20T11:14:42;32.90;99.90
56322;DHT22;42227;6.376;-10.782;2023-02-20T11:17:13;33.00;99.90
56322;DHT22;42227;6.376;-10.782;2023-02-20T11:19:45;33.40;99.90
56322;DHT22;42227;6.376;-10.782;2023-02-20T11:22:17;33.20;99.90
56322;DHT22;42227;6.376;-10.782;2023-02-20T11:24:45;33.20;99.90
56322;DHT22;42227;6.376;-10.782;2023-02-20T11:27:20;33.10;99.90
56322;DHT22;42227;6.376;-10.782;2023-02-20T11:32:43;33.20;99.90
56322;DHT22;42227;6.376;-10.782;2023-02-20T11:37:44;33.40;99.90
56322;DHT22;42227;6.376;-10.782;2023-02-20T11:40:28;33.40;99.90
56322;DHT22;42227;6.376;-10.782;2023-02-20T11:43:24;33.30;99.90
56322;DHT22;42227;6.376;-10.782;2023-02-20T11:49:03;33.50;99.90
56322;DHT22;42227;6.376;-10.782;2023-02-20T11:51:40;33.30;99.90
56322;DHT22;42227;6.376;-10.782;2023-02-20T11:54:23;33.40;99.90
56322;DHT22;42227;6.376;-10.782;2023-02-20T11:59:49;33.10;99.90
56322;DHT22;42227;6.376;-10.782;2023-02-20T12:02:24;33.20;99.90
56322;DHT22;42227;6.376;-10.782;2023-02-20T12:05:09;32.70;99.90
56322;DHT22;42227;6.376;-10.782;2023-02-20T12:12:56;33.30;99.90
56322;DHT22;42227;6.376;-10.782;2023-02-20T12:15:27;33.00;99.90
56322;DHT22;42227;6.376;-10.782;2023-02-20T12:21:26;33.20;99.90
56322;DHT22;42227;6.376;-10.782;2023-02-20T12:30:06;32.60;99.90
56322;DHT22;42227;6.376;-10.782;2023-02-20T12:35:32;32.90;99.90
56322;DHT22;42227;6.376;-10.782;2023-02-20T12:38:54;32.80;99.90
56322;DHT22;42227;6.376;-10.782;2023-02-20T12:49:56;32.80;99.90
56322;DHT22;42227;6.376;-10.782;2023-02-20T12:52:35;32.90;99.90
56322;DHT22;42227;6.376;-10.782;2023-02-20T12:55:29;32.90;99.90
56322;DHT22;42227;6.376;-10.782;2023-02-20T12:58:06;33.00;99.90
56322;DHT22;42227;6.376;-10.782;2023-02-20T13:00:54;33.20;99.90
56322;DHT22;42227;6.376;-10.782;2023-02-20T13:06:16;32.70;99.90
56322;DHT22;42227;6.376;-10.782;2023-02-20T13:11:21;32.80;99.90
56322;DHT22;42227;6.376;-10.782;2023-02-20T13:16:46;32.70;99.90
56322;DHT22;42227;6.376;-10.782;2023-02-20T13:21:48;32.90;99.90
56322;DHT22;42227;6.376;-10.782;2023-02-20T13:26:52;32.70;99.90
56322;DHT22;42227;6.376;-10.782;2023-02-20T13:29:25;33.10;99.90
56322;DHT22;42227;6.376;-10.782;2023-02-20T13:31:56;33.30;99.90
56322;DHT22;42227;6.376;-10.782;2023-02-20T13:34:35;33.00;99.90
56322;DHT22;42227;6.376;-10.782;2023-02-20T13:37:05;33.20;99.90
56322;DHT22;42227;6.376;-10.782;2023-02-20T13:39:52;33.10;99.90
56322;DHT22;42227;6.376;-10.782;2023-02-20T13:42:29;32.90;99.90
56322;DHT22;42227;6.376;-10.782;2023-02-20T13:44:58;32.90;99.90
56322;DHT22;42227;6.376;-10.782;2023-02-20T13:47:33;32.80;99.90
56322;DHT22;42227;6.376;-10.782;2023-02-20T13:50:03;33.00;99.90
56322;DHT22;42227;6.376;-10.782;2023-02-20T13:52:50;32.80;99.90
56322;DHT22;42227;6.376;-10.782;2023-02-20T13:55:24;32.90;99.90
56322;DHT22;42227;6.376;-10.782;2023-02-20T13:57:56;33.00;99.90
56322;DHT22;42227;6.376;-10.782;2023-02-20T14:03:24;33.00;99.90
56322;DHT22;42227;6.376;-10.782;2023-02-20T14:08:49;33.10;99.90
56322;DHT22;42227;6.376;-10.782;2023-02-20T14:11:32;32.60;99.90
56322;DHT22;42227;6.376;-10.782;2023-02-20T14:14:07;32.40;99.90
56322;DHT22;42227;6.376;-10.782;2023-02-20T14:16:41;32.60;99.90
56322;DHT22;42227;6.376;-10.782;2023-02-20T14:19:25;32.60;99.90
56322;DHT22;42227;6.376;-10.782;2023-02-20T14:21:54;32.60;99.90
56322;DHT22;42227;6.376;-10.782;2023-02-20T14:24:26;32.40;99.90
56322;DHT22;42227;6.376;-10.782;2023-02-20T14:26:55;32.60;99.90
56322;DHT22;42227;6.376;-10.782;2023-02-20T14:29:27;32.60;99.90
56322;DHT22;42227;6.376;-10.782;2023-02-20T14:31:57;32.60;99.90
56322;DHT22;42227;6.376;-10.782;2023-02-20T14:37:37;32.30;99.90
56322;DHT22;42227;6.376;-10.782;2023-02-20T14:40:39;32.30;99.90
56322;DHT22;42227;6.376;-10.782;2023-02-20T14:43:21;32.30;99.90
56322;DHT22;42227;6.376;-10.782;2023-02-20T14:46:23;32.20;99.90
56322;DHT22;42227;6.376;-10.782;2023-02-20T14:49:08;32.10;99.90
56322;DHT22;42227;6.376;-10.782;2023-02-20T14:51:38;32.60;99.90
56322;DHT22;42227;6.376;-10.782;2023-02-20T14:54:22;32.50;99.90
56322;DHT22;42227;6.376;-10.782;2023-02-20T14:56:51;32.60;99.90
56322;DHT22;42227;6.376;-10.782;2023-02-20T14:59:27;32.20;99.90
56322;DHT22;42227;6.376;-10.782;2023-02-20T15:01:58;32.30;99.90
56322;DHT22;42227;6.376;-10.782;2023-02-20T15:04:28;32.10;99.90
56322;DHT22;42227;6.376;-10.782;2023-02-20T15:07:04;31.90;99.90
56322;DHT22;42227;6.376;-10.782;2023-02-20T15:09:45;32.00;99.90
56322;DHT22;42227;6.376;-10.782;2023-02-20T15:12:37;32.00;99.90
56322;DHT22;42227;6.376;-10.782;2023-02-20T15:15:12;32.00;99.90
56322;DHT22;42227;6.376;-10.782;2023-02-20T15:17:42;32.10;99.90
56322;DHT22;42227;6.376;-10.782;2023-02-20T15:20:18;32.10;99.90
56322;DHT22;42227;6.376;-10.782;2023-02-20T15:22:47;32.00;99.90
56322;DHT22;42227;6.376;-10.782;2023-02-20T15:33:46;31.90;99.90
56322;DHT22;42227;6.376;-10.782;2023-02-20T15:36:21;32.00;99.90
56322;DHT22;42227;6.376;-10.782;2023-02-20T15:38:55;32.10;99.90
56322;DHT22;42227;6.376;-10.782;2023-02-20T15:41:23;31.90;99.90
56322;DHT22;42227;6.376;-10.782;2023-02-20T15:43:52;31.80;99.90
56322;DHT22;42227;6.376;-10.782;2023-02-20T15:46:20;31.70;99.90
56322;DHT22;42227;6.376;-10.782;2023-02-20T15:48:48;31.60;99.90
56322;DHT22;42227;6.376;-10.782;2023-02-20T15:51:21;31.60;99.90
56322;DHT22;42227;6.376;-10.782;2023-02-20T15:53:52;31.60;99.90
56322;DHT22;42227;6.376;-10.782;2023-02-20T15:56:20;31.50;99.90
56322;DHT22;42227;6.376;-10.782;2023-02-20T15:58:49;31.50;99.90
56322;DHT22;42227;6.376;-10.782;2023-02-20T16:01:18;31.70;99.90
56322;DHT22;42227;6.376;-10.782;2023-02-20T16:03:46;31.60;99.90
56322;DHT22;42227;6.376;-10.782;2023-02-20T16:06:21;31.40;99.90
56322;DHT22;42227;6.376;-10.782;2023-02-20T16:08:50;31.40;99.90
56322;DHT22;42227;6.376;-10.782;2023-02-20T16:11:37;31.50;99.90
56322;DHT22;42227;6.376;-10.782;2023-02-20T16:14:08;31.50;99.90
56322;DHT22;42227;6.376;-10.782;2023-02-20T16:16:41;31.50;99.90
56322;DHT22;42227;6.376;-10.782;2023-02-20T16:19:19;31.50;99.90
56322;DHT22;42227;6.376;-10.782;2023-02-20T16:21:57;31.30;99.90
56322;DHT22;42227;6.376;-10.782;2023-02-20T16:24:26;31.10;99.90
56322;DHT22;42227;6.376;-10.782;2023-02-20T16:26:55;31.30;99.90
56322;DHT22;42227;6.376;-10.782;2023-02-20T16:29:30;31.50;99.90
56322;DHT22;42227;6.376;-10.782;2023-02-20T16:34:32;31.40;99.90
56322;DHT22;42227;6.376;-10.782;2023-02-20T16:37:01;31.50;99.90
56322;DHT22;42227;6.376;-10.782;2023-02-20T16:39:29;31.50;99.90
56322;DHT22;42227;6.376;-10.782;2023-02-20T16:41:58;31.20;99.90
56322;DHT22;42227;6.376;-10.782;2023-02-20T16:44:35;30.90;99.90
56322;DHT22;42227;6.376;-10.782;2023-02-20T16:47:03;30.80;99.90
56322;DHT22;42227;6.376;-10.782;2023-02-20T16:49:32;30.80;99.90
56322;DHT22;42227;6.376;-10.782;2023-02-20T16:52:00;30.70;99.90
56322;DHT22;42227;6.376;-10.782;2023-02-20T16:54:28;30.80;99.90
56322;DHT22;42227;6.376;-10.782;2023-02-20T16:56:57;30.80;99.90
56322;DHT22;42227;6.376;-10.782;2023-02-20T16:59:25;30.80;99.90
56322;DHT22;42227;6.376;-10.782;2023-02-20T17:01:53;30.70;99.90
56322;DHT22;42227;6.376;-10.782;2023-02-20T17:04:21;30.60;99.90
56322;DHT22;42227;6.376;-10.782;2023-02-20T17:06:50;30.60;99.90
56322;DHT22;42227;6.376;-10.782;2023-02-20T17:09:18;30.60;99.90
56322;DHT22;42227;6.376;-10.782;2023-02-20T17:11:48;30.50;99.90
56322;DHT22;42227;6.376;-10.782;2023-02-20T17:14:16;30.50;99.90
56322;DHT22;42227;6.376;-10.782;2023-02-20T17:16:48;30.50;99.90
56322;DHT22;42227;6.376;-10.782;2023-02-20T17:19:17;30.40;99.90
56322;DHT22;42227;6.376;-10.782;2023-02-20T17:21:47;30.50;99.90
56322;DHT22;42227;6.376;-10.782;2023-02-20T17:24:16;30.30;99.90
56322;DHT22;42227;6.376;-10.782;2023-02-20T17:26:45;30.30;99.90
56322;DHT22;42227;6.376;-10.782;2023-02-20T17:29:14;30.50;99.90
56322;DHT22;42227;6.376;-10.782;2023-02-20T17:31:42;30.30;99.90
56322;DHT22;42227;6.376;-10.782;2023-02-20T17:34:10;30.20;99.90
56322;DHT22;42227;6.376;-10.782;2023-02-20T17:36:40;30.10;99.90
56322;DHT22;42227;6.376;-10.782;2023-02-20T17:39:08;30.00;99.90
56322;DHT22;42227;6.376;-10.782;2023-02-20T17:41:36;29.90;99.90
56322;DHT22;42227;6.376;-10.782;2023-02-20T17:44:04;29.90;99.90
56322;DHT22;42227;6.376;-10.782;2023-02-20T17:46:33;29.90;99.90
56322;DHT22;42227;6.376;-10.782;2023-02-20T17:49:01;29.90;99.90
56322;DHT22;42227;6.376;-10.782;2023-02-20T17:51:30;29.90;99.90
56322;DHT22;42227;6.376;-10.782;2023-02-20T17:53:58;29.80;99.90
56322;DHT22;42227;6.376;-10.782;2023-02-20T17:56:27;29.80;99.90
56322;DHT22;42227;6.376;-10.782;2023-02-20T17:58:55;29.70;99.90
56322;DHT22;42227;6.376;-10.782;2023-02-20T18:01:23;29.60;99.90
56322;DHT22;42227;6.376;-10.782;2023-02-20T18:03:52;29.40;99.90
56322;DHT22;42227;6.376;-10.782;2023-02-20T18:06:21;29.60;99.90
56322;DHT22;42227;6.376;-10.782;2023-02-20T18:08:50;29.60;99.90